Phoenix, Arizona
Traffic Map
Current Weather Conditions
Phoenix, Arizona
Clear
Clear
21°
Feels Like: 21°
Wind Chill: 21° Ceiling: Unl
Heat Index: 21° Visibility: 10mi
Dew Point: 11° Wind: 3mph
Humidity: 53% Direction: 190° (S)
Pressure: 29.91in Gusts: 0mph
Raw Report DataKPHX 021151Z 19003KT 10SM CLR 21/11 A2991 RMK AO2 SLP113 T02110111 10261 20206 53017
Traffic Incident Summary
Active as of:
Severity:
Category:
InformationThere was an issue retrieving the traffic information for this location. Please try a different location or try again shortly.
Advertisements
Track Severe Weather on mobile